Time;durP1;ratioP1;P1;durP2;ratioP2;P2;SDS_P1;SDS_P2;PMS_P1;PMS_P2;Temp;Humidity;BMP_temperature;BMP_pressure;BME280_temperature;BME280_humidity;BME280_pressure;Samples;Min_cycle;Max_cycle;Signal;HPM_P1;HPM_P2
2023/06/10 00:01:16;;;;;;;10.70;5.90;;;;;;;;;;5093049;28;20454;-58
2023/06/10 00:03:44;;;;;;;5.20;4.70;;;;;;;;;;5092893;28;20449;-58
2023/06/10 00:06:11;;;;;;;10.27;5.20;;;;;;;;;;5093333;28;20539;-58
2023/06/10 00:08:39;;;;;;;6.03;4.50;;;;;;;;;;5096926;28;20451;-58
2023/06/10 00:11:06;;;;;;;6.23;4.60;;;;;;;;;;5096819;28;20429;-58
2023/06/10 00:13:33;;;;;;;8.00;4.73;;;;;;;;;;5096681;28;20544;-58
2023/06/10 00:16:00;;;;;;;5.83;4.60;;;;;;;;;;5096630;28;20508;-59
2023/06/10 00:18:29;;;;;;;8.73;5.07;;;;;;;;;;5096777;28;20821;-59
2023/06/10 00:21:02;;;;;;;8.50;5.07;;;;;;;;;;5096672;28;20455;-58
2023/06/10 00:23:30;;;;;;;11.83;5.47;;;;;;;;;;5096716;28;20448;-58
2023/06/10 00:25:57;;;;;;;8.97;5.17;;;;;;;;;;5096358;28;20815;-58
2023/06/10 00:28:24;;;;;;;11.63;4.37;;;;;;;;;;5096687;28;20491;-58
2023/06/10 00:30:51;;;;;;;8.50;4.50;;;;;;;;;;5096570;28;20877;-58
2023/06/10 00:33:18;;;;;;;5.70;5.03;;;;;;;;;;5096506;28;20436;-58
2023/06/10 00:35:45;;;;;;;5.03;4.47;;;;;;;;;;5096481;28;21043;-58
2023/06/10 00:38:14;;;;;;;4.40;3.97;;;;;;;;;;5096289;28;20448;-58
2023/06/10 00:40:41;;;;;;;6.03;4.10;;;;;;;;;;5096175;28;20484;-58
2023/06/10 00:43:08;;;;;;;8.03;4.50;;;;;;;;;;5096345;28;20449;-58
2023/06/10 00:45:35;;;;;;;5.27;4.77;;;;;;;;;;5096383;28;20815;-57
2023/06/10 00:48:02;;;;;;;4.83;4.20;;;;;;;;;;5096180;28;20495;-57
2023/06/10 00:50:30;;;;;;;5.00;4.50;;;;;;;;;;5096094;28;20448;-57
2023/06/10 00:52:57;;;;;;;8.40;4.97;;;;;;;;;;5095954;28;20931;-57
2023/06/10 00:55:27;;;;;;;4.50;4.10;;;;;;;;;;5096022;28;20559;-58
2023/06/10 00:57:54;;;;;;;5.90;4.37;;;;;;;;;;5096038;28;20854;-58
2023/06/10 01:00:21;;;;;;;8.60;4.20;;;;;;;;;;5095739;28;21080;-58
2023/06/10 01:02:49;;;;;;;7.73;4.60;;;;;;;;;;5095871;28;20448;-58
2023/06/10 01:05:15;;;;;;;7.60;5.27;;;;;;;;;;5095806;28;20521;-58
2023/06/10 01:07:49;;;;;;;6.53;3.90;;;;;;;;;;5095540;28;20531;-58
2023/06/10 01:10:20;;;;;;;9.37;4.77;;;;;;;;;;5095871;28;20535;-58
2023/06/10 01:12:51;;;;;;;10.20;5.10;;;;;;;;;;5095791;28;20449;-58
2023/06/10 01:15:18;;;;;;;11.90;4.63;;;;;;;;;;5095597;28;20483;-58
2023/06/10 01:17:55;;;;;;;9.43;5.37;;;;;;;;;;5095209;28;20456;-57
2023/06/10 01:20:22;;;;;;;7.80;4.43;;;;;;;;;;5095251;28;20494;-57
2023/06/10 01:22:54;;;;;;;7.20;4.17;;;;;;;;;;5095431;28;20449;-57
2023/06/10 01:25:27;;;;;;;7.57;4.73;;;;;;;;;;5095387;28;20452;-57
2023/06/10 01:27:54;;;;;;;7.90;4.57;;;;;;;;;;5095235;28;20482;-58
2023/06/10 01:30:23;;;;;;;6.27;4.40;;;;;;;;;;5095428;28;20914;-59
2023/06/10 01:32:51;;;;;;;7.17;4.90;;;;;;;;;;5095350;28;20447;-58
2023/06/10 01:35:18;;;;;;;5.30;4.33;;;;;;;;;;5095237;28;20807;-59
2023/06/10 01:37:47;;;;;;;11.80;5.30;;;;;;;;;;5094925;28;20963;-58
2023/06/10 01:40:15;;;;;;;8.83;5.43;;;;;;;;;;5094975;28;20484;-58
2023/06/10 01:42:42;;;;;;;5.53;4.87;;;;;;;;;;5094999;28;20539;-58
2023/06/10 01:45:09;;;;;;;9.87;4.20;;;;;;;;;;5094759;28;20456;-58
2023/06/10 01:47:36;;;;;;;9.17;4.10;;;;;;;;;;5094967;28;20447;-58
2023/06/10 01:50:03;;;;;;;7.40;4.13;;;;;;;;;;5094957;28;20453;-58
2023/06/10 01:52:30;;;;;;;10.43;5.63;;;;;;;;;;5094795;28;20455;-58
2023/06/10 01:54:57;;;;;;;6.90;4.00;;;;;;;;;;5094713;28;20831;-59
2023/06/10 01:57:25;;;;;;;5.43;4.80;;;;;;;;;;5094635;28;20475;-59
2023/06/10 01:59:52;;;;;;;8.47;4.43;;;;;;;;;;5094461;28;20577;-58
2023/06/10 02:02:21;;;;;;;6.77;4.80;;;;;;;;;;5094726;28;20446;-58
2023/06/10 02:04:48;;;;;;;7.97;4.40;;;;;;;;;;5094689;28;20449;-58
2023/06/10 02:07:16;;;;;;;5.43;4.23;;;;;;;;;;5094457;28;20444;-58
2023/06/10 02:09:42;;;;;;;6.90;4.37;;;;;;;;;;5094477;28;20507;-58
2023/06/10 02:12:10;;;;;;;10.83;6.07;;;;;;;;;;5094303;28;20882;-58
2023/06/10 02:14:38;;;;;;;6.70;4.17;;;;;;;;;;5094499;28;20443;-58
2023/06/10 02:17:05;;;;;;;10.13;5.87;;;;;;;;;;5094427;28;20439;-58
2023/06/10 02:19:36;;;;;;;6.87;5.23;;;;;;;;;;5094291;28;20537;-57
2023/06/10 02:22:03;;;;;;;8.57;5.83;;;;;;;;;;5094351;28;20788;-57
2023/06/10 02:24:30;;;;;;;5.73;4.83;;;;;;;;;;5094197;28;20453;-57
2023/06/10 02:27:00;;;;;;;9.17;4.63;;;;;;;;;;5094111;28;20422;-57
2023/06/10 02:29:27;;;;;;;7.87;5.60;;;;;;;;;;5093896;28;20457;-58
2023/06/10 02:31:56;;;;;;;9.13;4.97;;;;;;;;;;5094378;28;20455;-59
2023/06/10 02:34:23;;;;;;;8.73;5.13;;;;;;;;;;5094231;28;20462;-59
2023/06/10 02:36:51;;;;;;;6.77;4.87;;;;;;;;;;5094007;28;20537;-59
2023/06/10 02:39:18;;;;;;;10.03;4.77;;;;;;;;;;5093680;28;20848;-59
2023/06/10 02:41:45;;;;;;;6.13;4.97;;;;;;;;;;5093858;28;20451;-59
2023/06/10 02:44:11;;;;;;;10.20;5.53;;;;;;;;;;5093887;28;20453;-59
2023/06/10 02:46:38;;;;;;;8.70;4.60;;;;;;;;;;5093725;28;20452;-59
2023/06/10 02:49:06;;;;;;;9.23;5.07;;;;;;;;;;5093670;28;20447;-59
2023/06/10 02:51:33;;;;;;;10.07;4.53;;;;;;;;;;5093609;28;20925;-60
2023/06/10 02:54:00;;;;;;;5.80;4.40;;;;;;;;;;5093809;28;20823;-59
2023/06/10 02:56:27;;;;;;;8.63;6.00;;;;;;;;;;5093576;28;20460;-57
2023/06/10 02:58:55;;;;;;;7.93;5.43;;;;;;;;;;5093705;28;20456;-58
2023/06/10 03:01:22;;;;;;;8.90;5.43;;;;;;;;;;5093442;28;20549;-58
2023/06/10 03:03:50;;;;;;;13.87;6.00;;;;;;;;;;5093509;28;20455;-58
2023/06/10 03:06:18;;;;;;;12.80;5.10;;;;;;;;;;5093282;28;20455;-58
2023/06/10 03:08:45;;;;;;;9.30;5.20;;;;;;;;;;5093602;28;20513;-58
2023/06/10 03:11:12;;;;;;;6.67;5.00;;;;;;;;;;5093248;28;20994;-58
2023/06/10 03:13:40;;;;;;;9.20;5.50;;;;;;;;;;5093382;28;20458;-57
2023/06/10 03:16:07;;;;;;;15.70;5.50;;;;;;;;;;5093139;28;20935;-57
2023/06/10 03:18:34;;;;;;;7.57;5.10;;;;;;;;;;5093235;28;20482;-58
2023/06/10 03:21:02;;;;;;;8.50;5.27;;;;;;;;;;5093015;28;20571;-57
2023/06/10 03:23:30;;;;;;;8.50;4.90;;;;;;;;;;5093080;28;21028;-57
2023/06/10 03:25:57;;;;;;;7.77;5.30;;;;;;;;;;5093235;28;20888;-58
2023/06/10 03:28:24;;;;;;;8.37;5.00;;;;;;;;;;5093150;28;20454;-57
2023/06/10 03:30:51;;;;;;;6.80;5.40;;;;;;;;;;5093017;28;20535;-57
2023/06/10 03:33:18;;;;;;;7.37;5.27;;;;;;;;;;5092912;28;20448;-57
2023/06/10 03:35:45;;;;;;;8.67;5.87;;;;;;;;;;5093235;28;20448;-59
2023/06/10 03:38:12;;;;;;;7.93;5.87;;;;;;;;;;5093025;28;20538;-58
2023/06/10 03:40:40;;;;;;;10.90;5.60;;;;;;;;;;5092355;28;20490;-58
2023/06/10 03:43:07;;;;;;;11.73;6.23;;;;;;;;;;5092587;28;20447;-57
2023/06/10 03:45:34;;;;;;;5.87;5.27;;;;;;;;;;5092977;28;20454;-57
2023/06/10 03:48:03;;;;;;;5.53;5.03;;;;;;;;;;5092761;28;20542;-57
2023/06/10 03:50:30;;;;;;;10.63;5.30;;;;;;;;;;5092991;28;20445;-57
2023/06/10 03:52:57;;;;;;;6.43;5.53;;;;;;;;;;5092940;28;20448;-58
2023/06/10 03:55:24;;;;;;;10.10;4.70;;;;;;;;;;5092748;28;20563;-58
2023/06/10 03:57:52;;;;;;;7.00;5.30;;;;;;;;;;5092855;28;20458;-58
2023/06/10 04:00:21;;;;;;;9.20;5.67;;;;;;;;;;5092691;28;20590;-58
2023/06/10 04:02:51;;;;;;;11.80;5.57;;;;;;;;;;5092866;28;20452;-58
2023/06/10 04:05:21;;;;;;;7.40;5.60;;;;;;;;;;5093198;28;20454;-59
2023/06/10 04:07:49;;;;;;;10.10;6.40;;;;;;;;;;5092903;28;20814;-59
2023/06/10 04:10:16;;;;;;;10.37;4.70;;;;;;;;;;5093023;28;20459;-59
2023/06/10 04:12:43;;;;;;;7.87;5.83;;;;;;;;;;5092801;28;20450;-59
2023/06/10 04:15:13;;;;;;;6.60;5.30;;;;;;;;;;5092788;28;20448;-59
2023/06/10 04:17:40;;;;;;;9.37;4.73;;;;;;;;;;5092930;28;20517;-59
2023/06/10 04:20:09;;;;;;;8.83;6.10;;;;;;;;;;5092679;28;20474;-59
2023/06/10 04:22:36;;;;;;;7.23;5.13;;;;;;;;;;5092778;28;20427;-60
2023/06/10 04:25:03;;;;;;;11.23;6.13;;;;;;;;;;5092521;28;20470;-58
2023/06/10 04:27:31;;;;;;;12.40;5.80;;;;;;;;;;5092802;28;20501;-63
2023/06/10 04:29:58;;;;;;;10.97;6.80;;;;;;;;;;5092790;28;20480;-58
2023/06/10 04:32:26;;;;;;;8.80;6.47;;;;;;;;;;5092755;28;20943;-59
2023/06/10 04:34:54;;;;;;;7.83;6.27;;;;;;;;;;5092710;28;20470;-59
2023/06/10 04:37:21;;;;;;;6.17;5.50;;;;;;;;;;5092538;28;20494;-58
2023/06/10 04:39:48;;;;;;;11.90;5.77;;;;;;;;;;5092428;28;20447;-58
2023/06/10 04:42:15;;;;;;;14.20;7.10;;;;;;;;;;5092462;28;20539;-58
2023/06/10 04:44:42;;;;;;;7.57;5.40;;;;;;;;;;5092841;28;20448;-60
2023/06/10 04:47:09;;;;;;;9.70;6.00;;;;;;;;;;5092406;28;20454;-59
2023/06/10 04:49:38;;;;;;;12.10;6.43;;;;;;;;;;5092644;28;20449;-58
2023/06/10 04:52:05;;;;;;;9.50;6.10;;;;;;;;;;5092785;28;20505;-60
2023/06/10 04:54:32;;;;;;;8.30;6.23;;;;;;;;;;5095783;28;20958;-61
2023/06/10 04:57:00;;;;;;;7.43;5.77;;;;;;;;;;5096099;28;20951;-60
2023/06/10 04:59:27;;;;;;;10.87;6.50;;;;;;;;;;5096126;28;20455;-58
2023/06/10 05:01:54;;;;;;;8.37;6.43;;;;;;;;;;5096274;28;20491;-58
2023/06/10 05:04:22;;;;;;;7.23;6.30;;;;;;;;;;5095969;28;20457;-58
2023/06/10 05:06:50;;;;;;;12.10;6.63;;;;;;;;;;5096228;28;20440;-58
2023/06/10 05:09:17;;;;;;;9.13;6.73;;;;;;;;;;5095931;28;20501;-59
2023/06/10 05:11:46;;;;;;;7.07;6.30;;;;;;;;;;5095735;28;20449;-58
2023/06/10 05:14:13;;;;;;;19.80;7.27;;;;;;;;;;5095822;28;20471;-61
2023/06/10 05:16:40;;;;;;;16.40;7.03;;;;;;;;;;5095857;28;20944;-58
2023/06/10 05:19:08;;;;;;;9.50;6.17;;;;;;;;;;5096283;28;20419;-58
2023/06/10 05:21:35;;;;;;;6.90;6.20;;;;;;;;;;5095681;28;20835;-58
2023/06/10 05:24:03;;;;;;;7.73;6.57;;;;;;;;;;5095403;28;20778;-58
2023/06/10 05:26:31;;;;;;;9.40;6.70;;;;;;;;;;5095816;28;20419;-59
2023/06/10 05:28:58;;;;;;;8.40;7.47;;;;;;;;;;5095364;28;20444;-59
2023/06/10 05:31:25;;;;;;;9.97;6.47;;;;;;;;;;5095433;28;20448;-59
2023/06/10 05:33:53;;;;;;;8.30;7.00;;;;;;;;;;5095777;28;20957;-63
2023/06/10 05:36:20;;;;;;;8.87;6.43;;;;;;;;;;5095751;28;20488;-59
2023/06/10 05:38:48;;;;;;;10.87;6.23;;;;;;;;;;5095624;28;20456;-59
2023/06/10 05:41:16;;;;;;;7.13;6.43;;;;;;;;;;5095277;28;20481;-59
2023/06/10 05:43:43;;;;;;;9.50;6.63;;;;;;;;;;5095259;28;20439;-59
2023/06/10 05:46:10;;;;;;;8.47;6.63;;;;;;;;;;5094992;28;20458;-60
2023/06/10 05:48:37;;;;;;;10.40;6.57;;;;;;;;;;5095244;28;20441;-59
2023/06/10 05:51:04;;;;;;;7.00;6.20;;;;;;;;;;5094868;28;20809;-59
2023/06/10 05:53:31;;;;;;;10.90;6.13;;;;;;;;;;5095084;28;20532;-60
2023/06/10 05:55:58;;;;;;;10.33;6.83;;;;;;;;;;5094666;28;20478;-59
2023/06/10 05:58:27;;;;;;;10.20;6.37;;;;;;;;;;5094943;28;20940;-59
2023/06/10 06:00:54;;;;;;;8.17;6.57;;;;;;;;;;5094850;28;20572;-59
2023/06/10 06:03:21;;;;;;;7.60;6.90;;;;;;;;;;5094460;28;20453;-59
2023/06/10 06:05:48;;;;;;;7.03;6.43;;;;;;;;;;5094271;28;20439;-59
2023/06/10 06:08:18;;;;;;;12.13;6.20;;;;;;;;;;5094899;28;20446;-59
2023/06/10 06:10:45;;;;;;;7.57;5.93;;;;;;;;;;5094713;28;20450;-60
2023/06/10 06:13:12;;;;;;;10.43;6.43;;;;;;;;;;5094849;28;20457;-59
2023/06/10 06:15:40;;;;;;;8.17;7.37;;;;;;;;;;5094539;28;20448;-59
2023/06/10 06:18:07;;;;;;;12.00;6.83;;;;;;;;;;5094607;28;20443;-59
2023/06/10 06:20:34;;;;;;;6.27;5.57;;;;;;;;;;5094487;28;20498;-59
2023/06/10 06:23:01;;;;;;;11.30;7.10;;;;;;;;;;5094514;28;20454;-59
2023/06/10 06:25:28;;;;;;;7.93;6.17;;;;;;;;;;5094467;28;20479;-59
2023/06/10 06:27:56;;;;;;;8.20;6.93;;;;;;;;;;5094340;28;20523;-59
2023/06/10 06:30:23;;;;;;;7.63;6.37;;;;;;;;;;5094361;28;20482;-59
2023/06/10 06:32:55;;;;;;;7.63;6.93;;;;;;;;;;5094423;28;20808;-62
2023/06/10 06:35:22;;;;;;;10.57;7.00;;;;;;;;;;5094403;28;20458;-58
2023/06/10 06:37:49;;;;;;;7.90;7.17;;;;;;;;;;5094240;28;20810;-58
2023/06/10 06:40:16;;;;;;;8.60;7.10;;;;;;;;;;5094009;28;20447;-58
2023/06/10 06:42:43;;;;;;;7.60;6.90;;;;;;;;;;5093945;28;20505;-59
2023/06/10 06:45:11;;;;;;;10.53;7.67;;;;;;;;;;5094132;28;20821;-58
2023/06/10 06:47:38;;;;;;;7.20;6.53;;;;;;;;;;5094607;28;20511;-58
2023/06/10 06:50:07;;;;;;;7.27;6.53;;;;;;;;;;5094030;28;20500;-59
2023/06/10 06:52:34;;;;;;;8.30;7.63;;;;;;;;;;5093867;28;20450;-59
2023/06/10 06:55:01;;;;;;;8.00;7.20;;;;;;;;;;5094052;28;20478;-59
2023/06/10 06:57:28;;;;;;;8.23;7.23;;;;;;;;;;5093674;28;20447;-59
2023/06/10 06:59:55;;;;;;;7.10;6.40;;;;;;;;;;5093820;28;20447;-58
2023/06/10 07:02:23;;;;;;;8.50;7.40;;;;;;;;;;5093854;28;20543;-58
2023/06/10 07:04:50;;;;;;;8.03;7.23;;;;;;;;;;5093469;28;20454;-59
2023/06/10 07:07:18;;;;;;;7.47;6.87;;;;;;;;;;5093632;28;20450;-59
2023/06/10 07:09:45;;;;;;;9.50;8.07;;;;;;;;;;5093447;28;20542;-60
2023/06/10 07:12:12;;;;;;;9.10;6.90;;;;;;;;;;5093596;28;20550;-59
2023/06/10 07:14:39;;;;;;;9.33;7.40;;;;;;;;;;5093534;28;20451;-58
2023/06/10 07:17:06;;;;;;;8.60;7.80;;;;;;;;;;5093156;28;20455;-58
2023/06/10 07:19:33;;;;;;;9.43;6.90;;;;;;;;;;5093246;28;20478;-58
2023/06/10 07:22:00;;;;;;;8.37;6.67;;;;;;;;;;5093175;28;20568;-60
2023/06/10 07:24:28;;;;;;;10.57;7.37;;;;;;;;;;5093206;28;20512;-59
2023/06/10 07:26:55;;;;;;;8.30;7.60;;;;;;;;;;5092937;28;20455;-58
2023/06/10 07:29:22;;;;;;;8.20;7.37;;;;;;;;;;5093360;28;20490;-59
2023/06/10 07:31:49;;;;;;;8.97;7.43;;;;;;;;;;5093197;28;20504;-59
2023/06/10 07:34:16;;;;;;;8.33;7.53;;;;;;;;;;5093233;28;20538;-59
2023/06/10 07:36:43;;;;;;;7.10;6.60;;;;;;;;;;5093052;28;20458;-59
2023/06/10 07:39:10;;;;;;;7.30;6.43;;;;;;;;;;5093651;28;20791;-59
2023/06/10 07:41:38;;;;;;;8.63;6.93;;;;;;;;;;5093368;28;20483;-59
2023/06/10 07:44:06;;;;;;;8.03;6.30;;;;;;;;;;5093114;28;20899;-59
2023/06/10 07:46:33;;;;;;;7.70;7.00;;;;;;;;;;5093045;28;20810;-59
2023/06/10 07:48:59;;;;;;;9.70;6.90;;;;;;;;;;5092996;28;20447;-59
2023/06/10 07:51:26;;;;;;;9.47;7.50;;;;;;;;;;5093079;28;20945;-58
2023/06/10 07:53:53;;;;;;;7.57;6.83;;;;;;;;;;5092890;28;20443;-59
2023/06/10 07:56:21;;;;;;;6.83;6.10;;;;;;;;;;5092658;28;20478;-59
2023/06/10 07:58:49;;;;;;;8.60;7.87;;;;;;;;;;5092958;28;20454;-59
2023/06/10 08:01:16;;;;;;;7.43;6.73;;;;;;;;;;5092631;28;20481;-59
2023/06/10 08:03:44;;;;;;;8.40;7.50;;;;;;;;;;5092843;28;20447;-59
2023/06/10 08:06:11;;;;;;;9.20;7.33;;;;;;;;;;5092714;28;20443;-59
2023/06/10 08:08:41;;;;;;;7.53;6.70;;;;;;;;;;5092592;28;20466;-58
2023/06/10 08:11:08;;;;;;;7.20;6.60;;;;;;;;;;5092946;28;20481;-58
2023/06/10 08:13:35;;;;;;;8.23;7.43;;;;;;;;;;5092845;28;20446;-59
2023/06/10 08:16:04;;;;;;;7.87;7.17;;;;;;;;;;5092875;28;20453;-59
2023/06/10 08:18:31;;;;;;;7.60;6.90;;;;;;;;;;5092840;28;20481;-59
2023/06/10 08:20:58;;;;;;;8.33;7.53;;;;;;;;;;5092521;28;20450;-59
2023/06/10 08:23:25;;;;;;;8.60;7.43;;;;;;;;;;5092663;28;20496;-59
2023/06/10 08:25:52;;;;;;;9.30;7.70;;;;;;;;;;5092546;28;20458;-59
2023/06/10 08:28:19;;;;;;;8.50;7.30;;;;;;;;;;5094980;28;20784;-59
2023/06/10 08:30:46;;;;;;;9.50;6.33;;;;;;;;;;5096579;28;20493;-58
2023/06/10 08:33:15;;;;;;;10.03;7.40;;;;;;;;;;5096393;28;20454;-58
2023/06/10 08:35:42;;;;;;;11.13;8.50;;;;;;;;;;5096762;28;20483;-59
2023/06/10 08:38:09;;;;;;;9.00;8.23;;;;;;;;;;5096414;28;20443;-60
2023/06/10 08:40:36;;;;;;;9.17;7.47;;;;;;;;;;5096291;28;20459;-59
2023/06/10 08:43:07;;;;;;;8.77;7.20;;;;;;;;;;5095950;28;20482;-59
2023/06/10 08:45:36;;;;;;;7.97;7.03;;;;;;;;;;5096292;28;20446;-59
2023/06/10 08:48:06;;;;;;;9.10;7.73;;;;;;;;;;5096013;28;20500;-59
2023/06/10 08:50:36;;;;;;;7.60;6.70;;;;;;;;;;5096019;28;20449;-59
2023/06/10 08:53:03;;;;;;;7.30;6.57;;;;;;;;;;5096249;28;20446;-59
2023/06/10 08:55:31;;;;;;;8.50;6.90;;;;;;;;;;5095985;28;20477;-59
2023/06/10 08:57:59;;;;;;;8.63;7.60;;;;;;;;;;5096049;28;20489;-59
2023/06/10 09:00:26;;;;;;;8.23;7.50;;;;;;;;;;5095925;28;20451;-58
2023/06/10 09:02:53;;;;;;;8.13;7.40;;;;;;;;;;5096088;28;20569;-59
2023/06/10 09:05:21;;;;;;;7.93;7.00;;;;;;;;;;5096006;28;20938;-59
2023/06/10 09:07:49;;;;;;;7.87;7.03;;;;;;;;;;5095838;28;20809;-59
2023/06/10 09:10:16;;;;;;;7.80;7.20;;;;;;;;;;5096089;28;20931;-59
2023/06/10 09:12:43;;;;;;;7.10;6.47;;;;;;;;;;5095825;28;20853;-59
2023/06/10 09:15:12;;;;;;;10.83;7.57;;;;;;;;;;5095578;28;20451;-59
2023/06/10 09:17:40;;;;;;;8.57;7.17;;;;;;;;;;5095787;28;20469;-59
2023/06/10 09:20:08;;;;;;;10.80;9.53;;;;;;;;;;5095665;28;20866;-58
2023/06/10 09:22:35;;;;;;;7.93;7.03;;;;;;;;;;5095595;28;20897;-59
2023/06/10 09:25:08;;;;;;;10.83;7.43;;;;;;;;;;5095604;28;20500;-59
2023/06/10 09:27:45;;;;;;;8.07;7.37;;;;;;;;;;5095382;28;20874;-59
2023/06/10 09:30:20;;;;;;;7.77;6.83;;;;;;;;;;5095617;28;20447;-59
2023/06/10 09:32:47;;;;;;;9.20;7.40;;;;;;;;;;5095371;28;20804;-60
2023/06/10 09:35:14;;;;;;;7.80;7.00;;;;;;;;;;5095136;28;20934;-59
2023/06/10 09:37:41;;;;;;;9.03;7.30;;;;;;;;;;5095167;28;20443;-59
2023/06/10 09:40:10;;;;;;;7.87;7.27;;;;;;;;;;5094864;28;20953;-59
2023/06/10 09:42:38;;;;;;;7.30;6.70;;;;;;;;;;5095301;28;20487;-59
2023/06/10 09:45:06;;;;;;;6.73;6.00;;;;;;;;;;5095210;28;20451;-59
2023/06/10 09:47:33;;;;;;;7.07;6.47;;;;;;;;;;5095139;28;20451;-59
2023/06/10 09:50:01;;;;;;;7.53;6.60;;;;;;;;;;5095009;28;20483;-57
2023/06/10 09:52:29;;;;;;;7.17;6.47;;;;;;;;;;5094850;28;20451;-60
2023/06/10 09:55:00;;;;;;;7.27;6.27;;;;;;;;;;5094616;28;20540;-59
2023/06/10 09:57:32;;;;;;;6.20;5.70;;;;;;;;;;5094976;28;20496;-60
2023/06/10 09:59:59;;;;;;;6.47;5.83;;;;;;;;;;5094814;28;20546;-60
2023/06/10 10:02:26;;;;;;;5.87;5.47;;;;;;;;;;5094641;28;20471;-59
2023/06/10 10:04:53;;;;;;;6.37;5.67;;;;;;;;;;5094694;28;20837;-59
2023/06/10 10:07:20;;;;;;;6.33;5.83;;;;;;;;;;5094439;28;20483;-60
2023/06/10 10:09:47;;;;;;;7.07;6.47;;;;;;;;;;5094621;28;20443;-60
2023/06/10 10:12:16;;;;;;;6.80;6.30;;;;;;;;;;5094654;28;20442;-59
2023/06/10 10:14:47;;;;;;;6.77;5.40;;;;;;;;;;5094417;28;20508;-59
2023/06/10 10:17:15;;;;;;;6.50;6.00;;;;;;;;;;5094504;28;20443;-60
2023/06/10 10:19:48;;;;;;;7.80;6.23;;;;;;;;;;5094378;28;20447;-59
2023/06/10 10:22:17;;;;;;;6.97;6.47;;;;;;;;;;5094665;28;20482;-59
2023/06/10 10:24:48;;;;;;;7.40;5.80;;;;;;;;;;5094445;28;20454;-59
2023/06/10 10:27:18;;;;;;;7.13;6.27;;;;;;;;;;5094336;28;20492;-59
2023/06/10 10:29:47;;;;;;;6.33;5.83;;;;;;;;;;5094174;28;20443;-59
2023/06/10 10:32:15;;;;;;;6.30;5.70;;;;;;;;;;5094172;28;20527;-59
2023/06/10 10:34:45;;;;;;;7.27;6.53;;;;;;;;;;5094235;28;20472;-59
2023/06/10 10:37:12;;;;;;;6.30;5.77;;;;;;;;;;5094288;28;20442;-59
2023/06/10 10:39:39;;;;;;;6.60;6.00;;;;;;;;;;5094170;28;20534;-59
2023/06/10 10:42:09;;;;;;;6.10;5.60;;;;;;;;;;5093898;28;20502;-60
2023/06/10 10:44:36;;;;;;;5.90;5.50;;;;;;;;;;5094043;28;20453;-59
2023/06/10 10:47:05;;;;;;;6.20;5.17;;;;;;;;;;5093739;28;20508;-59
2023/06/10 10:49:33;;;;;;;7.50;6.37;;;;;;;;;;5094109;28;20447;-59
2023/06/10 10:52:01;;;;;;;5.33;4.93;;;;;;;;;;5093597;28;20484;-59
2023/06/10 10:54:32;;;;;;;10.70;5.00;;;;;;;;;;5093691;28;20450;-60
2023/06/10 10:57:12;;;;;;;5.97;5.47;;;;;;;;;;5093846;28;20538;-59
2023/06/10 10:59:46;;;;;;;4.80;4.40;;;;;;;;;;5093624;28;20450;-60
2023/06/10 11:02:18;;;;;;;6.33;5.40;;;;;;;;;;5093868;28;20474;-57
2023/06/10 11:04:49;;;;;;;6.00;4.87;;;;;;;;;;5093845;28;20443;-59
2023/06/10 11:07:16;;;;;;;5.33;4.80;;;;;;;;;;5093517;28;20443;-59
2023/06/10 11:09:58;;;;;;;8.10;5.20;;;;;;;;;;5093398;28;20453;-59
2023/06/10 11:12:25;;;;;;;5.03;4.60;;;;;;;;;;5093656;28;20584;-59
2023/06/10 11:14:56;;;;;;;6.30;5.50;;;;;;;;;;5093626;28;20482;-59
2023/06/10 11:17:24;;;;;;;5.00;4.70;;;;;;;;;;5093666;28;20447;-59
2023/06/10 11:19:51;;;;;;;6.60;5.83;;;;;;;;;;5093350;28;20454;-60
2023/06/10 11:22:18;;;;;;;5.23;4.93;;;;;;;;;;5093489;28;20569;-57
2023/06/10 11:24:49;;;;;;;6.63;5.50;;;;;;;;;;5093482;28;20447;-59
2023/06/10 11:27:17;;;;;;;5.97;5.53;;;;;;;;;;5093442;28;20475;-59
2023/06/10 11:29:56;;;;;;;6.70;6.07;;;;;;;;;;5093317;28;20450;-58
2023/06/10 11:32:25;;;;;;;6.50;5.87;;;;;;;;;;5093303;28;20846;-59
2023/06/10 11:34:54;;;;;;;6.17;4.53;;;;;;;;;;5093129;28;20481;-58
2023/06/10 11:37:21;;;;;;;4.40;4.00;;;;;;;;;;5093278;28;20446;-58
2023/06/10 11:39:48;;;;;;;5.70;5.30;;;;;;;;;;5093238;28;20447;-58
2023/06/10 11:42:17;;;;;;;5.77;5.27;;;;;;;;;;5093162;28;20477;-58
2023/06/10 11:44:48;;;;;;;8.20;6.00;;;;;;;;;;5093044;28;20483;-59
2023/06/10 11:47:15;;;;;;;6.27;5.73;;;;;;;;;;5092875;28;20950;-60
2023/06/10 11:49:44;;;;;;;6.23;5.63;;;;;;;;;;5093232;28;20504;-60
2023/06/10 11:52:11;;;;;;;6.00;5.60;;;;;;;;;;5093063;28;20450;-59
2023/06/10 11:54:38;;;;;;;6.70;6.10;;;;;;;;;;5093068;28;20451;-59
2023/06/10 11:57:07;;;;;;;5.90;5.50;;;;;;;;;;5093107;28;20841;-59
2023/06/10 11:59:34;;;;;;;8.10;6.93;;;;;;;;;;5092771;28;20451;-59
2023/06/10 12:02:01;;;;;;;6.30;5.70;;;;;;;;;;5093026;28;20500;-59
2023/06/10 12:04:28;;;;;;;14.60;7.00;;;;;;;;;;5097202;28;20459;-59
2023/06/10 12:06:57;;;;;;;6.87;6.17;;;;;;;;;;5097089;28;20859;-59
2023/06/10 12:09:24;;;;;;;7.20;6.60;;;;;;;;;;5097241;28;20475;-58
2023/06/10 12:11:52;;;;;;;6.70;6.20;;;;;;;;;;5097125;28;20500;-60
2023/06/10 12:14:34;;;;;;;6.40;5.90;;;;;;;;;;5096481;28;20837;-58
2023/06/10 12:17:00;;;;;;;6.47;5.87;;;;;;;;;;5096499;28;20837;-58
2023/06/10 12:19:27;;;;;;;6.70;6.10;;;;;;;;;;5096697;28;20457;-58
2023/06/10 12:21:54;;;;;;;8.60;7.20;;;;;;;;;;5096716;28;20447;-58
2023/06/10 12:24:22;;;;;;;7.50;6.20;;;;;;;;;;5096573;28;20910;-58
2023/06/10 12:26:49;;;;;;;6.87;6.17;;;;;;;;;;5096349;28;20938;-59
2023/06/10 12:29:18;;;;;;;7.30;6.60;;;;;;;;;;5096727;28;20451;-58
2023/06/10 12:31:55;;;;;;;6.43;5.87;;;;;;;;;;5096602;28;20454;-58
2023/06/10 12:34:29;;;;;;;7.83;7.03;;;;;;;;;;5096258;28;21032;-58
2023/06/10 12:36:55;;;;;;;6.37;5.87;;;;;;;;;;5096343;28;20538;-58
2023/06/10 12:39:24;;;;;;;11.47;5.90;;;;;;;;;;5096377;28;20478;-58
2023/06/10 12:41:52;;;;;;;6.60;6.00;;;;;;;;;;5096399;28;20457;-59
2023/06/10 12:44:19;;;;;;;6.43;5.30;;;;;;;;;;5096236;28;20483;-58
2023/06/10 12:46:46;;;;;;;8.80;5.53;;;;;;;;;;5096118;28;20453;-58
2023/06/10 12:49:20;;;;;;;5.53;5.10;;;;;;;;;;5096379;28;20450;-58
2023/06/10 12:51:47;;;;;;;5.83;5.27;;;;;;;;;;5096003;28;20454;-58
2023/06/10 12:54:14;;;;;;;5.27;4.90;;;;;;;;;;5095985;28;20980;-58
2023/06/10 12:56:42;;;;;;;5.30;4.87;;;;;;;;;;5094613;28;20995;-58
2023/06/10 12:59:09;;;;;;;4.50;4.20;;;;;;;;;;5094816;28;20532;-58
2023/06/10 13:01:36;;;;;;;4.20;3.90;;;;;;;;;;5094721;28;20512;-58
2023/06/10 13:04:03;;;;;;;5.00;4.60;;;;;;;;;;5094601;28;20501;-58
2023/06/10 13:06:32;;;;;;;5.30;4.90;;;;;;;;;;5094348;28;20451;-58
2023/06/10 13:08:59;;;;;;;5.00;4.70;;;;;;;;;;5094565;28;20455;-58
2023/06/10 13:11:25;;;;;;;5.30;4.80;;;;;;;;;;5094646;28;20447;-58
2023/06/10 13:13:54;;;;;;;6.10;4.70;;;;;;;;;;5093965;28;20450;-58
2023/06/10 13:16:21;;;;;;;5.40;4.83;;;;;;;;;;5094235;28;20457;-58
2023/06/10 13:18:47;;;;;;;5.20;4.80;;;;;;;;;;5094212;28;20538;-58
2023/06/10 13:21:15;;;;;;;8.50;4.37;;;;;;;;;;5094231;28;20447;-58
2023/06/10 13:23:42;;;;;;;5.03;4.10;;;;;;;;;;5094333;28;20479;-58
2023/06/10 13:26:09;;;;;;;5.23;4.80;;;;;;;;;;5094245;28;20505;-58
2023/06/10 13:28:35;;;;;;;5.40;4.83;;;;;;;;;;5094291;28;20542;-58
2023/06/10 13:31:04;;;;;;;7.77;4.77;;;;;;;;;;5094166;28;20481;-58
2023/06/10 13:33:31;;;;;;;5.53;4.67;;;;;;;;;;5094566;28;20451;-58
2023/06/10 13:35:57;;;;;;;5.20;4.87;;;;;;;;;;5094118;28;20489;-58
2023/06/10 13:38:24;;;;;;;5.30;4.90;;;;;;;;;;5094128;28;20546;-58
2023/06/10 13:40:51;;;;;;;4.10;3.70;;;;;;;;;;5094188;28;20541;-58
2023/06/10 13:43:18;;;;;;;4.97;4.57;;;;;;;;;;5093960;28;20529;-58
2023/06/10 13:45:45;;;;;;;5.27;4.80;;;;;;;;;;5093940;28;20496;-58
2023/06/10 13:48:13;;;;;;;4.90;4.60;;;;;;;;;;5093778;28;20451;-58
2023/06/10 13:50:45;;;;;;;4.30;4.10;;;;;;;;;;5093920;28;20449;-58
2023/06/10 13:53:12;;;;;;;5.87;4.77;;;;;;;;;;5094010;28;20487;-58
2023/06/10 13:55:39;;;;;;;5.00;4.70;;;;;;;;;;5060611;28;957446;-58
2023/06/10 13:58:06;;;;;;;5.40;4.90;;;;;;;;;;5094742;28;20306;-58
2023/06/10 14:00:33;;;;;;;5.37;4.37;;;;;;;;;;5094735;28;20450;-58
2023/06/10 14:03:00;;;;;;;5.43;4.93;;;;;;;;;;5094825;28;20853;-58
2023/06/10 14:05:28;;;;;;;5.10;4.60;;;;;;;;;;5094729;28;20534;-58
2023/06/10 14:07:55;;;;;;;4.53;4.23;;;;;;;;;;5094549;28;20541;-58
2023/06/10 14:10:23;;;;;;;5.70;5.30;;;;;;;;;;5094537;28;20453;-58
2023/06/10 14:12:50;;;;;;;4.93;4.57;;;;;;;;;;5094505;28;20462;-58
2023/06/10 14:15:17;;;;;;;8.00;4.87;;;;;;;;;;5094257;28;20451;-58
2023/06/10 14:17:44;;;;;;;6.90;5.33;;;;;;;;;;5094514;28;20813;-58
2023/06/10 14:20:11;;;;;;;6.73;5.23;;;;;;;;;;5094403;28;20814;-58
2023/06/10 14:22:40;;;;;;;5.60;5.10;;;;;;;;;;5094402;28;20555;-58
2023/06/10 14:25:07;;;;;;;5.70;5.20;;;;;;;;;;5093326;28;20505;-58
2023/06/10 14:27:34;;;;;;;4.67;4.30;;;;;;;;;;5094051;28;20447;-58
2023/06/10 14:30:02;;;;;;;7.17;5.30;;;;;;;;;;5094292;28;20455;-58
2023/06/10 14:32:29;;;;;;;6.93;5.20;;;;;;;;;;5094175;28;20784;-58
2023/06/10 14:34:56;;;;;;;6.80;5.13;;;;;;;;;;5094096;28;20517;-58
2023/06/10 14:37:23;;;;;;;5.50;5.10;;;;;;;;;;5094109;28;20537;-58
2023/06/10 14:39:51;;;;;;;5.20;4.80;;;;;;;;;;5094031;28;20447;-58
2023/06/10 14:42:18;;;;;;;5.00;4.57;;;;;;;;;;5093773;28;20447;-58
2023/06/10 14:44:45;;;;;;;6.07;5.40;;;;;;;;;;5093888;28;20566;-58